sensor_id;sensor_type;location;lat;lon;timestamp;temperature;humidity
16823;DHT22;8528;49.976;11.858;2024-03-02T00:00:13;3.50;99.90
16823;DHT22;8528;49.976;11.858;2024-03-02T00:02:44;3.50;99.90
16823;DHT22;8528;49.976;11.858;2024-03-02T00:05:13;3.50;99.90
16823;DHT22;8528;49.976;11.858;2024-03-02T00:07:42;3.50;99.90
16823;DHT22;8528;49.976;11.858;2024-03-02T00:10:11;3.50;99.90
16823;DHT22;8528;49.976;11.858;2024-03-02T00:12:42;3.50;99.90
16823;DHT22;8528;49.976;11.858;2024-03-02T00:17:57;3.50;99.90
16823;DHT22;8528;49.976;11.858;2024-03-02T00:20:26;3.40;99.90
16823;DHT22;8528;49.976;11.858;2024-03-02T00:23:02;3.40;99.90
16823;DHT22;8528;49.976;11.858;2024-03-02T00:25:39;3.40;99.90
16823;DHT22;8528;49.976;11.858;2024-03-02T00:31:03;3.40;99.90
16823;DHT22;8528;49.976;11.858;2024-03-02T00:33:41;3.30;99.90
16823;DHT22;8528;49.976;11.858;2024-03-02T00:36:10;3.30;99.90
16823;DHT22;8528;49.976;11.858;2024-03-02T00:38:50;3.30;99.90
16823;DHT22;8528;49.976;11.858;2024-03-02T00:41:31;3.30;99.90
16823;DHT22;8528;49.976;11.858;2024-03-02T00:44:00;3.30;99.90
16823;DHT22;8528;49.976;11.858;2024-03-02T00:46:29;3.20;99.90
16823;DHT22;8528;49.976;11.858;2024-03-02T00:48:58;3.20;99.90
16823;DHT22;8528;49.976;11.858;2024-03-02T00:51:28;3.20;99.90
16823;DHT22;8528;49.976;11.858;2024-03-02T00:53:59;3.20;99.90
16823;DHT22;8528;49.976;11.858;2024-03-02T00:56:27;3.20;99.90
16823;DHT22;8528;49.976;11.858;2024-03-02T00:58:53;3.30;99.90
16823;DHT22;8528;49.976;11.858;2024-03-02T01:01:20;3.30;99.90
16823;DHT22;8528;49.976;11.858;2024-03-02T01:03:48;3.30;99.90
16823;DHT22;8528;49.976;11.858;2024-03-02T01:06:16;3.30;99.90
16823;DHT22;8528;49.976;11.858;2024-03-02T01:08:44;3.30;99.90
16823;DHT22;8528;49.976;11.858;2024-03-02T01:11:10;3.30;99.90
16823;DHT22;8528;49.976;11.858;2024-03-02T01:13:37;3.30;99.90
16823;DHT22;8528;49.976;11.858;2024-03-02T01:16:05;3.30;99.90
16823;DHT22;8528;49.976;11.858;2024-03-02T01:18:32;3.30;99.90
16823;DHT22;8528;49.976;11.858;2024-03-02T01:21:00;3.30;99.90
16823;DHT22;8528;49.976;11.858;2024-03-02T01:23:28;3.30;99.90
16823;DHT22;8528;49.976;11.858;2024-03-02T01:25:55;3.30;99.90
16823;DHT22;8528;49.976;11.858;2024-03-02T01:28:22;3.30;99.90
16823;DHT22;8528;49.976;11.858;2024-03-02T01:30:49;3.30;99.90
16823;DHT22;8528;49.976;11.858;2024-03-02T01:33:19;3.40;99.90
16823;DHT22;8528;49.976;11.858;2024-03-02T01:35:47;3.40;99.90
16823;DHT22;8528;49.976;11.858;2024-03-02T01:38:14;3.40;99.90
16823;DHT22;8528;49.976;11.858;2024-03-02T01:40:42;3.40;99.90
16823;DHT22;8528;49.976;11.858;2024-03-02T01:43:10;3.40;99.90
16823;DHT22;8528;49.976;11.858;2024-03-02T01:45:38;3.40;99.90
16823;DHT22;8528;49.976;11.858;2024-03-02T01:48:07;3.50;99.90
16823;DHT22;8528;49.976;11.858;2024-03-02T01:50:35;3.50;99.90
16823;DHT22;8528;49.976;11.858;2024-03-02T01:53:02;3.50;99.90
16823;DHT22;8528;49.976;11.858;2024-03-02T01:55:30;3.50;99.90
16823;DHT22;8528;49.976;11.858;2024-03-02T01:57:57;3.50;99.90
16823;DHT22;8528;49.976;11.858;2024-03-02T02:00:25;3.60;99.90
16823;DHT22;8528;49.976;11.858;2024-03-02T02:02:54;3.60;99.90
16823;DHT22;8528;49.976;11.858;2024-03-02T02:05:21;3.60;99.90
16823;DHT22;8528;49.976;11.858;2024-03-02T02:07:50;3.60;99.90
16823;DHT22;8528;49.976;11.858;2024-03-02T02:10:17;3.70;99.90
16823;DHT22;8528;49.976;11.858;2024-03-02T02:12:44;3.70;99.90
16823;DHT22;8528;49.976;11.858;2024-03-02T02:15:30;3.70;99.90
16823;DHT22;8528;49.976;11.858;2024-03-02T02:17:58;3.70;99.90
16823;DHT22;8528;49.976;11.858;2024-03-02T02:20:26;3.80;99.90
16823;DHT22;8528;49.976;11.858;2024-03-02T02:23:03;3.80;99.90
16823;DHT22;8528;49.976;11.858;2024-03-02T02:25:30;3.90;99.90
16823;DHT22;8528;49.976;11.858;2024-03-02T02:27:58;3.90;99.90
16823;DHT22;8528;49.976;11.858;2024-03-02T02:30:30;3.90;99.90
16823;DHT22;8528;49.976;11.858;2024-03-02T02:32:58;3.90;99.90
16823;DHT22;8528;49.976;11.858;2024-03-02T02:35:25;3.90;99.90
16823;DHT22;8528;49.976;11.858;2024-03-02T02:37:53;3.90;99.90
16823;DHT22;8528;49.976;11.858;2024-03-02T02:40:21;3.90;99.90
16823;DHT22;8528;49.976;11.858;2024-03-02T02:42:48;4.00;99.90
16823;DHT22;8528;49.976;11.858;2024-03-02T02:45:16;4.00;99.90
16823;DHT22;8528;49.976;11.858;2024-03-02T02:47:44;4.00;99.90
16823;DHT22;8528;49.976;11.858;2024-03-02T02:50:12;4.00;99.90
16823;DHT22;8528;49.976;11.858;2024-03-02T02:52:40;4.00;99.90
16823;DHT22;8528;49.976;11.858;2024-03-02T02:55:09;4.00;99.90
16823;DHT22;8528;49.976;11.858;2024-03-02T02:57:38;4.10;99.90
16823;DHT22;8528;49.976;11.858;2024-03-02T03:00:08;4.10;99.90
16823;DHT22;8528;49.976;11.858;2024-03-02T03:02:46;4.10;99.90
16823;DHT22;8528;49.976;11.858;2024-03-02T03:05:15;4.10;99.90
16823;DHT22;8528;49.976;11.858;2024-03-02T03:07:42;4.00;99.90
16823;DHT22;8528;49.976;11.858;2024-03-02T03:10:11;4.00;99.90
16823;DHT22;8528;49.976;11.858;2024-03-02T03:12:38;4.10;99.90
16823;DHT22;8528;49.976;11.858;2024-03-02T03:15:05;4.10;99.90
16823;DHT22;8528;49.976;11.858;2024-03-02T03:17:34;4.10;99.90
16823;DHT22;8528;49.976;11.858;2024-03-02T03:20:01;4.10;99.90
16823;DHT22;8528;49.976;11.858;2024-03-02T03:22:30;4.20;99.90
16823;DHT22;8528;49.976;11.858;2024-03-02T03:24:58;4.10;99.90
16823;DHT22;8528;49.976;11.858;2024-03-02T03:27:25;4.20;99.90
16823;DHT22;8528;49.976;11.858;2024-03-02T03:29:52;4.10;99.90
16823;DHT22;8528;49.976;11.858;2024-03-02T03:32:20;4.20;99.90
16823;DHT22;8528;49.976;11.858;2024-03-02T03:34:50;4.20;99.90
16823;DHT22;8528;49.976;11.858;2024-03-02T03:37:17;4.20;99.90
16823;DHT22;8528;49.976;11.858;2024-03-02T03:39:44;4.20;99.90
16823;DHT22;8528;49.976;11.858;2024-03-02T03:42:11;4.20;99.90
16823;DHT22;8528;49.976;11.858;2024-03-02T03:44:38;4.20;99.90
16823;DHT22;8528;49.976;11.858;2024-03-02T03:47:07;4.20;99.90
16823;DHT22;8528;49.976;11.858;2024-03-02T03:49:34;4.20;99.90
16823;DHT22;8528;49.976;11.858;2024-03-02T03:52:00;4.10;99.90
16823;DHT22;8528;49.976;11.858;2024-03-02T03:54:28;4.10;99.90
16823;DHT22;8528;49.976;11.858;2024-03-02T03:56:55;4.20;99.90
16823;DHT22;8528;49.976;11.858;2024-03-02T03:59:23;4.20;99.90
16823;DHT22;8528;49.976;11.858;2024-03-02T04:01:50;4.20;99.90
16823;DHT22;8528;49.976;11.858;2024-03-02T04:04:17;4.20;99.90
16823;DHT22;8528;49.976;11.858;2024-03-02T04:06:44;4.20;99.90
16823;DHT22;8528;49.976;11.858;2024-03-02T04:09:11;4.20;99.90
16823;DHT22;8528;49.976;11.858;2024-03-02T04:11:38;4.20;99.90
16823;DHT22;8528;49.976;11.858;2024-03-02T04:14:05;4.20;99.90
16823;DHT22;8528;49.976;11.858;2024-03-02T04:16:33;4.20;99.90
16823;DHT22;8528;49.976;11.858;2024-03-02T04:19:03;4.20;99.90
16823;DHT22;8528;49.976;11.858;2024-03-02T04:21:34;4.30;99.90
16823;DHT22;8528;49.976;11.858;2024-03-02T04:24:04;4.20;99.90
16823;DHT22;8528;49.976;11.858;2024-03-02T04:26:31;4.30;99.90
16823;DHT22;8528;49.976;11.858;2024-03-02T04:28:58;4.30;99.90
16823;DHT22;8528;49.976;11.858;2024-03-02T04:31:28;4.30;99.90
16823;DHT22;8528;49.976;11.858;2024-03-02T04:33:59;4.30;99.90
16823;DHT22;8528;49.976;11.858;2024-03-02T04:36:29;4.30;99.90
16823;DHT22;8528;49.976;11.858;2024-03-02T04:38:57;4.30;99.90
16823;DHT22;8528;49.976;11.858;2024-03-02T04:41:26;4.30;99.90
16823;DHT22;8528;49.976;11.858;2024-03-02T04:43:57;4.30;99.90
16823;DHT22;8528;49.976;11.858;2024-03-02T04:46:24;4.30;99.90
16823;DHT22;8528;49.976;11.858;2024-03-02T04:48:51;4.30;99.90
16823;DHT22;8528;49.976;11.858;2024-03-02T04:51:22;4.30;99.90
16823;DHT22;8528;49.976;11.858;2024-03-02T04:53:55;4.40;99.90
16823;DHT22;8528;49.976;11.858;2024-03-02T04:56:22;4.40;99.90
16823;DHT22;8528;49.976;11.858;2024-03-02T04:58:59;4.40;99.90
16823;DHT22;8528;49.976;11.858;2024-03-02T05:01:28;4.50;99.90
16823;DHT22;8528;49.976;11.858;2024-03-02T05:03:56;4.50;99.90
16823;DHT22;8528;49.976;11.858;2024-03-02T05:06:23;4.50;99.90
16823;DHT22;8528;49.976;11.858;2024-03-02T05:09:04;4.50;99.90
16823;DHT22;8528;49.976;11.858;2024-03-02T05:11:40;4.50;99.90
16823;DHT22;8528;49.976;11.858;2024-03-02T05:14:10;4.50;99.90
16823;DHT22;8528;49.976;11.858;2024-03-02T05:16:38;4.50;99.90
16823;DHT22;8528;49.976;11.858;2024-03-02T05:19:07;4.60;99.90
16823;DHT22;8528;49.976;11.858;2024-03-02T05:21:37;4.60;99.90
16823;DHT22;8528;49.976;11.858;2024-03-02T05:24:05;4.60;99.90
16823;DHT22;8528;49.976;11.858;2024-03-02T05:26:32;4.60;99.90
16823;DHT22;8528;49.976;11.858;2024-03-02T05:29:00;4.60;99.90
16823;DHT22;8528;49.976;11.858;2024-03-02T05:31:27;4.60;99.90
16823;DHT22;8528;49.976;11.858;2024-03-02T05:33:57;4.60;99.90
16823;DHT22;8528;49.976;11.858;2024-03-02T05:36:26;4.60;99.90
16823;DHT22;8528;49.976;11.858;2024-03-02T05:38:53;4.50;99.90
16823;DHT22;8528;49.976;11.858;2024-03-02T05:41:20;4.50;99.90
16823;DHT22;8528;49.976;11.858;2024-03-02T05:43:48;4.50;99.90
16823;DHT22;8528;49.976;11.858;2024-03-02T05:46:20;4.50;99.90
16823;DHT22;8528;49.976;11.858;2024-03-02T05:48:49;4.50;99.90
16823;DHT22;8528;49.976;11.858;2024-03-02T05:51:19;4.60;99.90
16823;DHT22;8528;49.976;11.858;2024-03-02T05:53:49;4.60;99.90
16823;DHT22;8528;49.976;11.858;2024-03-02T05:56:16;4.60;99.90
16823;DHT22;8528;49.976;11.858;2024-03-02T05:58:43;4.60;99.90
16823;DHT22;8528;49.976;11.858;2024-03-02T06:01:24;4.60;99.90
16823;DHT22;8528;49.976;11.858;2024-03-02T06:03:58;4.60;99.90
16823;DHT22;8528;49.976;11.858;2024-03-02T06:06:26;4.60;99.90
16823;DHT22;8528;49.976;11.858;2024-03-02T06:08:53;4.70;99.90
16823;DHT22;8528;49.976;11.858;2024-03-02T06:11:20;4.70;99.90
16823;DHT22;8528;49.976;11.858;2024-03-02T06:13:50;4.70;99.90
16823;DHT22;8528;49.976;11.858;2024-03-02T06:16:17;4.80;99.90
16823;DHT22;8528;49.976;11.858;2024-03-02T06:18:45;4.80;99.90
16823;DHT22;8528;49.976;11.858;2024-03-02T06:21:12;4.90;99.90
16823;DHT22;8528;49.976;11.858;2024-03-02T06:23:42;4.90;99.90
16823;DHT22;8528;49.976;11.858;2024-03-02T06:26:09;4.90;99.90
16823;DHT22;8528;49.976;11.858;2024-03-02T06:28:37;5.00;99.90
16823;DHT22;8528;49.976;11.858;2024-03-02T06:31:04;5.00;99.90
16823;DHT22;8528;49.976;11.858;2024-03-02T06:33:31;5.00;99.90
16823;DHT22;8528;49.976;11.858;2024-03-02T06:35:59;5.00;99.90
16823;DHT22;8528;49.976;11.858;2024-03-02T06:38:26;5.10;99.90
16823;DHT22;8528;49.976;11.858;2024-03-02T06:40:55;5.00;99.90
16823;DHT22;8528;49.976;11.858;2024-03-02T06:43:22;5.00;99.90
16823;DHT22;8528;49.976;11.858;2024-03-02T06:45:50;5.00;99.90
16823;DHT22;8528;49.976;11.858;2024-03-02T06:48:18;5.00;99.90
16823;DHT22;8528;49.976;11.858;2024-03-02T06:50:50;5.00;99.90
16823;DHT22;8528;49.976;11.858;2024-03-02T06:53:32;5.10;99.90
16823;DHT22;8528;49.976;11.858;2024-03-02T06:56:03;5.10;99.90
16823;DHT22;8528;49.976;11.858;2024-03-02T06:58:31;5.10;99.90
16823;DHT22;8528;49.976;11.858;2024-03-02T07:01:01;5.10;99.90
16823;DHT22;8528;49.976;11.858;2024-03-02T07:03:28;5.10;99.90
16823;DHT22;8528;49.976;11.858;2024-03-02T07:05:55;5.20;99.90
16823;DHT22;8528;49.976;11.858;2024-03-02T07:08:22;5.20;99.90
16823;DHT22;8528;49.976;11.858;2024-03-02T07:10:54;5.30;99.90
16823;DHT22;8528;49.976;11.858;2024-03-02T07:13:21;5.30;99.90
16823;DHT22;8528;49.976;11.858;2024-03-02T07:15:48;5.40;99.90
16823;DHT22;8528;49.976;11.858;2024-03-02T07:18:41;5.50;99.90
16823;DHT22;8528;49.976;11.858;2024-03-02T07:21:11;5.50;99.90
16823;DHT22;8528;49.976;11.858;2024-03-02T07:23:52;5.50;99.90
16823;DHT22;8528;49.976;11.858;2024-03-02T07:26:23;5.60;99.90
16823;DHT22;8528;49.976;11.858;2024-03-02T07:28:53;5.70;99.90
16823;DHT22;8528;49.976;11.858;2024-03-02T07:31:26;5.80;99.90
16823;DHT22;8528;49.976;11.858;2024-03-02T07:33:55;5.80;99.90
16823;DHT22;8528;49.976;11.858;2024-03-02T07:36:28;6.00;99.90
16823;DHT22;8528;49.976;11.858;2024-03-02T07:38:55;6.10;99.90
16823;DHT22;8528;49.976;11.858;2024-03-02T07:41:23;6.20;99.90
16823;DHT22;8528;49.976;11.858;2024-03-02T07:43:50;6.30;99.90
16823;DHT22;8528;49.976;11.858;2024-03-02T07:46:19;6.40;99.90
16823;DHT22;8528;49.976;11.858;2024-03-02T07:48:52;6.40;99.90
16823;DHT22;8528;49.976;11.858;2024-03-02T07:51:20;6.30;99.90
16823;DHT22;8528;49.976;11.858;2024-03-02T07:53:47;6.30;99.90
16823;DHT22;8528;49.976;11.858;2024-03-02T07:56:14;6.30;99.90
16823;DHT22;8528;49.976;11.858;2024-03-02T07:58:49;6.30;99.90
16823;DHT22;8528;49.976;11.858;2024-03-02T08:01:16;6.40;99.90
16823;DHT22;8528;49.976;11.858;2024-03-02T08:03:44;6.40;99.90
16823;DHT22;8528;49.976;11.858;2024-03-02T08:06:20;6.50;99.90
16823;DHT22;8528;49.976;11.858;2024-03-02T08:08:48;6.50;99.90
16823;DHT22;8528;49.976;11.858;2024-03-02T08:11:27;6.60;99.90
16823;DHT22;8528;49.976;11.858;2024-03-02T08:13:57;6.80;99.90
16823;DHT22;8528;49.976;11.858;2024-03-02T08:16:24;7.10;99.90
16823;DHT22;8528;49.976;11.858;2024-03-02T08:18:52;7.30;99.90
16823;DHT22;8528;49.976;11.858;2024-03-02T08:21:19;7.50;99.90
16823;DHT22;8528;49.976;11.858;2024-03-02T08:23:49;7.50;99.90
16823;DHT22;8528;49.976;11.858;2024-03-02T08:26:16;7.60;99.90
16823;DHT22;8528;49.976;11.858;2024-03-02T08:28:44;7.70;99.90
16823;DHT22;8528;49.976;11.858;2024-03-02T08:31:10;7.50;99.90
16823;DHT22;8528;49.976;11.858;2024-03-02T08:33:37;7.60;99.90
16823;DHT22;8528;49.976;11.858;2024-03-02T08:36:05;7.80;99.90
16823;DHT22;8528;49.976;11.858;2024-03-02T08:38:32;7.80;99.90
16823;DHT22;8528;49.976;11.858;2024-03-02T08:41:07;8.00;99.90
16823;DHT22;8528;49.976;11.858;2024-03-02T08:43:37;7.90;99.90
16823;DHT22;8528;49.976;11.858;2024-03-02T08:46:03;7.90;99.90
16823;DHT22;8528;49.976;11.858;2024-03-02T08:48:31;8.10;99.90
16823;DHT22;8528;49.976;11.858;2024-03-02T08:50:58;8.40;99.90
16823;DHT22;8528;49.976;11.858;2024-03-02T08:53:27;8.60;99.90
16823;DHT22;8528;49.976;11.858;2024-03-02T08:55:57;8.60;99.90
16823;DHT22;8528;49.976;11.858;2024-03-02T08:58:27;8.90;99.90
16823;DHT22;8528;49.976;11.858;2024-03-02T09:00:55;9.40;99.90
16823;DHT22;8528;49.976;11.858;2024-03-02T09:03:22;9.40;99.90
16823;DHT22;8528;49.976;11.858;2024-03-02T09:05:49;9.50;99.90
16823;DHT22;8528;49.976;11.858;2024-03-02T09:08:15;9.30;99.90
16823;DHT22;8528;49.976;11.858;2024-03-02T09:10:43;9.30;99.90
16823;DHT22;8528;49.976;11.858;2024-03-02T09:13:10;9.10;99.90
16823;DHT22;8528;49.976;11.858;2024-03-02T09:15:38;9.00;99.90
16823;DHT22;8528;49.976;11.858;2024-03-02T09:18:12;9.00;99.90
16823;DHT22;8528;49.976;11.858;2024-03-02T09:20:52;8.70;99.90
16823;DHT22;8528;49.976;11.858;2024-03-02T09:23:25;8.50;99.90
16823;DHT22;8528;49.976;11.858;2024-03-02T09:25:55;8.40;99.90
16823;DHT22;8528;49.976;11.858;2024-03-02T09:28:22;8.30;99.90
16823;DHT22;8528;49.976;11.858;2024-03-02T09:30:49;8.20;99.90
16823;DHT22;8528;49.976;11.858;2024-03-02T09:33:16;8.00;99.90
16823;DHT22;8528;49.976;11.858;2024-03-02T09:35:43;8.00;99.90
16823;DHT22;8528;49.976;11.858;2024-03-02T09:38:16;8.30;99.90
16823;DHT22;8528;49.976;11.858;2024-03-02T09:40:44;8.60;99.90
16823;DHT22;8528;49.976;11.858;2024-03-02T09:43:14;8.80;99.90
16823;DHT22;8528;49.976;11.858;2024-03-02T09:45:41;8.70;99.90
16823;DHT22;8528;49.976;11.858;2024-03-02T09:48:14;8.50;99.90
16823;DHT22;8528;49.976;11.858;2024-03-02T09:50:45;8.40;99.90
16823;DHT22;8528;49.976;11.858;2024-03-02T09:53:13;8.40;99.90
16823;DHT22;8528;49.976;11.858;2024-03-02T09:55:46;8.40;99.90
16823;DHT22;8528;49.976;11.858;2024-03-02T09:58:13;8.40;99.90
16823;DHT22;8528;49.976;11.858;2024-03-02T10:00:42;8.40;99.90
16823;DHT22;8528;49.976;11.858;2024-03-02T10:03:12;8.30;99.90
16823;DHT22;8528;49.976;11.858;2024-03-02T10:05:40;8.30;99.90
16823;DHT22;8528;49.976;11.858;2024-03-02T10:08:07;8.20;99.90
16823;DHT22;8528;49.976;11.858;2024-03-02T10:10:39;8.30;99.90
16823;DHT22;8528;49.976;11.858;2024-03-02T10:13:14;8.10;99.90
16823;DHT22;8528;49.976;11.858;2024-03-02T10:15:49;8.00;99.90
16823;DHT22;8528;49.976;11.858;2024-03-02T10:18:26;8.00;99.90
16823;DHT22;8528;49.976;11.858;2024-03-02T10:20:55;7.90;99.90
16823;DHT22;8528;49.976;11.858;2024-03-02T10:23:22;8.00;99.90
16823;DHT22;8528;49.976;11.858;2024-03-02T10:25:49;8.00;99.90
16823;DHT22;8528;49.976;11.858;2024-03-02T10:28:24;7.90;99.90
16823;DHT22;8528;49.976;11.858;2024-03-02T10:30:53;7.90;99.90
16823;DHT22;8528;49.976;11.858;2024-03-02T10:33:24;8.00;99.90
16823;DHT22;8528;49.976;11.858;2024-03-02T10:35:52;7.80;99.90
16823;DHT22;8528;49.976;11.858;2024-03-02T10:38:18;7.90;99.90
16823;DHT22;8528;49.976;11.858;2024-03-02T10:40:49;8.00;99.90
16823;DHT22;8528;49.976;11.858;2024-03-02T10:43:20;8.00;99.90
16823;DHT22;8528;49.976;11.858;2024-03-02T10:45:52;8.20;99.90
16823;DHT22;8528;49.976;11.858;2024-03-02T10:48:19;8.30;99.90
16823;DHT22;8528;49.976;11.858;2024-03-02T10:50:48;8.50;99.90
16823;DHT22;8528;49.976;11.858;2024-03-02T10:53:15;8.50;99.90
16823;DHT22;8528;49.976;11.858;2024-03-02T10:55:42;8.50;99.90
16823;DHT22;8528;49.976;11.858;2024-03-02T10:58:12;8.50;99.90
16823;DHT22;8528;49.976;11.858;2024-03-02T11:00:39;8.50;99.90
16823;DHT22;8528;49.976;11.858;2024-03-02T11:03:12;8.40;99.90
16823;DHT22;8528;49.976;11.858;2024-03-02T11:05:43;8.50;99.90
16823;DHT22;8528;49.976;11.858;2024-03-02T11:08:16;8.70;99.90
16823;DHT22;8528;49.976;11.858;2024-03-02T11:11:06;8.60;99.90
16823;DHT22;8528;49.976;11.858;2024-03-02T11:13:34;8.70;99.90
16823;DHT22;8528;49.976;11.858;2024-03-02T11:16:27;8.80;99.90
16823;DHT22;8528;49.976;11.858;2024-03-02T11:18:57;8.90;99.90
16823;DHT22;8528;49.976;11.858;2024-03-02T11:21:25;9.00;99.90
16823;DHT22;8528;49.976;11.858;2024-03-02T11:23:59;8.90;99.90
16823;DHT22;8528;49.976;11.858;2024-03-02T11:26:38;9.10;99.90
16823;DHT22;8528;49.976;11.858;2024-03-02T11:29:07;9.10;99.90
16823;DHT22;8528;49.976;11.858;2024-03-02T11:31:59;9.10;99.90
16823;DHT22;8528;49.976;11.858;2024-03-02T11:34:36;9.10;99.90
16823;DHT22;8528;49.976;11.858;2024-03-02T11:37:09;9.30;99.90
16823;DHT22;8528;49.976;11.858;2024-03-02T11:39:39;9.30;99.90
16823;DHT22;8528;49.976;11.858;2024-03-02T11:42:07;9.20;99.90
16823;DHT22;8528;49.976;11.858;2024-03-02T11:44:37;9.20;99.90
16823;DHT22;8528;49.976;11.858;2024-03-02T11:47:09;9.20;99.90
16823;DHT22;8528;49.976;11.858;2024-03-02T11:49:44;9.00;99.90
16823;DHT22;8528;49.976;11.858;2024-03-02T11:52:15;8.90;99.90
16823;DHT22;8528;49.976;11.858;2024-03-02T11:54:45;8.80;99.90
16823;DHT22;8528;49.976;11.858;2024-03-02T11:57:20;8.90;99.90
16823;DHT22;8528;49.976;11.858;2024-03-02T11:59:49;9.30;99.90
16823;DHT22;8528;49.976;11.858;2024-03-02T12:02:20;9.50;99.90
16823;DHT22;8528;49.976;11.858;2024-03-02T12:04:54;9.50;99.90
16823;DHT22;8528;49.976;11.858;2024-03-02T12:07:24;9.20;99.90
16823;DHT22;8528;49.976;11.858;2024-03-02T12:10:00;9.10;99.90
16823;DHT22;8528;49.976;11.858;2024-03-02T12:12:29;8.90;99.90
16823;DHT22;8528;49.976;11.858;2024-03-02T12:14:58;8.80;99.90
16823;DHT22;8528;49.976;11.858;2024-03-02T12:17:27;8.80;99.90
16823;DHT22;8528;49.976;11.858;2024-03-02T12:19:57;8.90;99.90
16823;DHT22;8528;49.976;11.858;2024-03-02T12:22:30;9.10;99.90
16823;DHT22;8528;49.976;11.858;2024-03-02T12:24:57;9.00;99.90
16823;DHT22;8528;49.976;11.858;2024-03-02T12:27:24;8.90;99.90
16823;DHT22;8528;49.976;11.858;2024-03-02T12:29:54;8.90;99.90
16823;DHT22;8528;49.976;11.858;2024-03-02T12:32:21;9.10;99.90
16823;DHT22;8528;49.976;11.858;2024-03-02T12:34:50;9.30;99.90
16823;DHT22;8528;49.976;11.858;2024-03-02T12:37:18;9.70;99.90
16823;DHT22;8528;49.976;11.858;2024-03-02T12:39:45;9.90;99.90
16823;DHT22;8528;49.976;11.858;2024-03-02T12:42:13;10.10;99.90
16823;DHT22;8528;49.976;11.858;2024-03-02T12:44:43;10.00;99.90
16823;DHT22;8528;49.976;11.858;2024-03-02T12:47:10;9.70;99.90
16823;DHT22;8528;49.976;11.858;2024-03-02T12:49:40;9.70;99.90
16823;DHT22;8528;49.976;11.858;2024-03-02T12:52:07;9.50;99.90
16823;DHT22;8528;49.976;11.858;2024-03-02T12:54:34;9.30;99.90
16823;DHT22;8528;49.976;11.858;2024-03-02T12:57:04;9.20;99.90
16823;DHT22;8528;49.976;11.858;2024-03-02T12:59:31;9.20;99.90
16823;DHT22;8528;49.976;11.858;2024-03-02T13:02:05;9.20;99.90
16823;DHT22;8528;49.976;11.858;2024-03-02T13:04:35;8.90;99.90
16823;DHT22;8528;49.976;11.858;2024-03-02T13:07:02;8.80;99.90
16823;DHT22;8528;49.976;11.858;2024-03-02T13:09:30;8.80;99.90
16823;DHT22;8528;49.976;11.858;2024-03-02T13:12:01;8.80;99.90
16823;DHT22;8528;49.976;11.858;2024-03-02T13:14:33;9.10;99.90
16823;DHT22;8528;49.976;11.858;2024-03-02T13:17:05;9.30;99.90
16823;DHT22;8528;49.976;11.858;2024-03-02T13:19:32;9.50;99.90
16823;DHT22;8528;49.976;11.858;2024-03-02T13:21:59;9.30;99.90
16823;DHT22;8528;49.976;11.858;2024-03-02T13:24:26;9.10;99.90
16823;DHT22;8528;49.976;11.858;2024-03-02T13:27:00;8.80;99.90
16823;DHT22;8528;49.976;11.858;2024-03-02T13:29:30;8.70;99.90
16823;DHT22;8528;49.976;11.858;2024-03-02T13:32:05;8.70;99.90
16823;DHT22;8528;49.976;11.858;2024-03-02T13:34:32;8.80;99.90
16823;DHT22;8528;49.976;11.858;2024-03-02T13:36:59;9.10;99.90
16823;DHT22;8528;49.976;11.858;2024-03-02T13:39:32;9.10;99.90
16823;DHT22;8528;49.976;11.858;2024-03-02T13:41:59;9.10;99.90
16823;DHT22;8528;49.976;11.858;2024-03-02T13:44:36;9.10;99.90
16823;DHT22;8528;49.976;11.858;2024-03-02T13:47:07;9.10;99.90
16823;DHT22;8528;49.976;11.858;2024-03-02T13:49:37;8.90;99.90
16823;DHT22;8528;49.976;11.858;2024-03-02T13:52:06;9.00;99.90
16823;DHT22;8528;49.976;11.858;2024-03-02T13:54:53;8.90;99.90
16823;DHT22;8528;49.976;11.858;2024-03-02T13:57:23;8.90;99.90
16823;DHT22;8528;49.976;11.858;2024-03-02T13:59:53;9.00;99.90
16823;DHT22;8528;49.976;11.858;2024-03-02T14:02:22;9.00;99.90
16823;DHT22;8528;49.976;11.858;2024-03-02T14:04:49;9.10;99.90
16823;DHT22;8528;49.976;11.858;2024-03-02T14:07:17;9.30;99.90
16823;DHT22;8528;49.976;11.858;2024-03-02T14:09:44;9.30;99.90
16823;DHT22;8528;49.976;11.858;2024-03-02T14:12:11;9.30;99.90
16823;DHT22;8528;49.976;11.858;2024-03-02T14:14:40;9.10;99.90
16823;DHT22;8528;49.976;11.858;2024-03-02T14:17:11;8.90;99.90
16823;DHT22;8528;49.976;11.858;2024-03-02T14:19:41;8.90;99.90
16823;DHT22;8528;49.976;11.858;2024-03-02T14:22:08;8.90;99.90
16823;DHT22;8528;49.976;11.858;2024-03-02T14:24:35;8.90;99.90
16823;DHT22;8528;49.976;11.858;2024-03-02T14:27:10;8.90;99.90
16823;DHT22;8528;49.976;11.858;2024-03-02T14:29:54;8.90;99.90
16823;DHT22;8528;49.976;11.858;2024-03-02T14:32:21;8.80;99.90
16823;DHT22;8528;49.976;11.858;2024-03-02T14:34:47;8.80;99.90
16823;DHT22;8528;49.976;11.858;2024-03-02T14:37:15;8.70;99.90
16823;DHT22;8528;49.976;11.858;2024-03-02T14:39:44;8.80;99.90
16823;DHT22;8528;49.976;11.858;2024-03-02T14:42:11;8.80;99.90
16823;DHT22;8528;49.976;11.858;2024-03-02T14:44:40;8.80;99.90
16823;DHT22;8528;49.976;11.858;2024-03-02T14:47:07;8.70;99.90
16823;DHT22;8528;49.976;11.858;2024-03-02T14:49:35;8.60;99.90
16823;DHT22;8528;49.976;11.858;2024-03-02T14:52:08;8.60;99.90
16823;DHT22;8528;49.976;11.858;2024-03-02T14:54:37;8.50;99.90
16823;DHT22;8528;49.976;11.858;2024-03-02T14:57:05;8.50;99.90
16823;DHT22;8528;49.976;11.858;2024-03-02T14:59:34;8.70;99.90
16823;DHT22;8528;49.976;11.858;2024-03-02T15:02:02;8.70;99.90
16823;DHT22;8528;49.976;11.858;2024-03-02T15:04:29;8.80;99.90
16823;DHT22;8528;49.976;11.858;2024-03-02T15:06:55;8.70;99.90
16823;DHT22;8528;49.976;11.858;2024-03-02T15:09:25;8.70;99.90
16823;DHT22;8528;49.976;11.858;2024-03-02T15:11:52;8.90;99.90
16823;DHT22;8528;49.976;11.858;2024-03-02T15:14:28;9.00;99.90
16823;DHT22;8528;49.976;11.858;2024-03-02T15:17:01;9.20;99.90
16823;DHT22;8528;49.976;11.858;2024-03-02T15:19:28;9.30;99.90
16823;DHT22;8528;49.976;11.858;2024-03-02T15:21:55;9.40;99.90
16823;DHT22;8528;49.976;11.858;2024-03-02T15:24:28;9.50;99.90
16823;DHT22;8528;49.976;11.858;2024-03-02T15:26:58;9.60;99.90
16823;DHT22;8528;49.976;11.858;2024-03-02T15:29:25;9.70;99.90
16823;DHT22;8528;49.976;11.858;2024-03-02T15:31:56;9.70;99.90
16823;DHT22;8528;49.976;11.858;2024-03-02T15:34:26;9.70;99.90
16823;DHT22;8528;49.976;11.858;2024-03-02T15:36:53;9.40;99.90
16823;DHT22;8528;49.976;11.858;2024-03-02T15:39:22;9.20;99.90
16823;DHT22;8528;49.976;11.858;2024-03-02T15:41:54;9.10;99.90
16823;DHT22;8528;49.976;11.858;2024-03-02T15:44:21;9.00;99.90
16823;DHT22;8528;49.976;11.858;2024-03-02T15:46:51;8.90;99.90
16823;DHT22;8528;49.976;11.858;2024-03-02T15:49:18;8.70;99.90
16823;DHT22;8528;49.976;11.858;2024-03-02T15:51:47;8.50;99.90
16823;DHT22;8528;49.976;11.858;2024-03-02T15:54:14;8.40;99.90
16823;DHT22;8528;49.976;11.858;2024-03-02T15:56:41;8.30;99.90
16823;DHT22;8528;49.976;11.858;2024-03-02T15:59:08;8.30;99.90
16823;DHT22;8528;49.976;11.858;2024-03-02T16:01:38;8.20;99.90
16823;DHT22;8528;49.976;11.858;2024-03-02T16:04:07;8.10;99.90